Flight Track Log - Related Links

Times and Time Zones

All times are in EDT time to prevent confusion due to time zone crossing. See the UPS768 flight status page for this flight to view local times or setup timezone preferences in your user account.

Time Position Orientation Groundspeed Altitude Reporting Facility
EDT Latitude Longitude Course Direction KTS MPH feet Rate Location/Type
Fri 04:40:57 AM 38.1660 -85.7390 315° West 21 24  Level FlightAware ADS-B
Fri 04:41:39 AM 38.1670 -85.7410 302° West 29 33 167 Level FlightAware ADS-B
Fri 04:42:09 AM 38.1700 -85.7420 345° North 29 33 179 Level FlightAware ADS-B
Fri 04:42:21 AM 38.1700 -85.7410 90° East 16 18 188 Level FlightAware ADS-B
Fri 04:43:19 AM 38.1750 -85.7430 343° North 20 23 193 Level FlightAware ADS-B
Fri 04:44:03 AM 38.1790 -85.7440 349° North 34 39 215 Level FlightAware ADS-B
Fri 04:44:29 AM 38.1800 -85.7450 322° Northwest 31 36 235 Level FlightAware ADS-B
Fri 04:44:55 AM 38.1830 -85.7460 345° North 31 36 249 Level FlightAware ADS-B
Fri 04:45:23 AM 38.1820 -85.7460 180° South 16 18 265 Level FlightAware ADS-B
Fri 04:47:26 AM 38.1840 -85.7460 360° North 13 15 285 Level FlightAware ADS-B
Fri 04:48:06 AM 38.1850 -85.7460 360° North 15 17 422 Level FlightAware ADS-B
Fri 04:50:00 AM 38.0471 -85.9493 233° Southwest  Level FlightAware Approximate
Fri 04:50:00 AM 38.1850 -85.7480 233° Southwest 21 24  Level FlightAware ADS-B
Fri 04:50:08 AM 38.1840 -85.7480 180° South 20 23 1,059 Level FlightAware ADS-B
Fri 04:50:45 AM 38.1830 -85.7480 180° South 43 49 1,149 Level FlightAware ADS-B
Fri 04:51:04 AM 38.1760 -85.7450 161° South 130 150 1,895 Level FlightAware ADS-B
Fri 04:51:42 AM 38.1440 -85.7380 170° South 178 205 1,800 2,455 Climbing FlightAware ADS-B
Fri 04:52:10 AM 38.1170 -85.7410 185° South 233 268 2,700 2,679 Climbing FlightAware ADS-B
Fri 04:52:38 AM 38.0830 -85.7470 188° South 255 293 4,300 3,600 Climbing FlightAware ADS-B
Fri 04:52:50 AM 38.0700 -85.7520 197° South 258 297 5,100 3,750 Climbing FlightAware ADS-B
Fri 04:53:02 AM 38.0580 -85.7610 211° Southwest 266 306 5,800 3,429 Climbing FlightAware ADS-B
Fri 04:53:18 AM 38.0440 -85.7800 227° Southwest 274 315 6,700 3,643 Climbing FlightAware ADS-B
Fri 04:53:30 AM 38.0360 -85.7960 238° Southwest 276 318 7,500 3,789 Climbing FlightAware ADS-B
Fri 04:53:56 AM 38.0200 -85.8330 241° Southwest 284 327 9,100 3,000 Climbing FlightAware ADS-B
Fri 04:54:42 AM 37.9890 -85.9030 241° Southwest 324 373 11,100 2,302 Climbing FlightAware ADS-B
Fri 04:55:22 AM 37.9600 -85.9770 244° Southwest 371 427 12,400 1,667 Climbing FlightAware ADS-B
Fri 04:55:54 AM 37.9440 -86.0180 244° Southwest 391 450 13,100 2,000 Climbing FlightAware ADS-B
Fri 04:56:37 AM 37.9100 -86.1050 244° Southwest 414 476 14,900 3,209 Climbing FlightAware ADS-B
Fri 04:57:20 AM 37.8630 -86.2320 245° Southwest 429 494 17,700 3,205 Climbing FlightAware ADS-B
Fri 04:58:05 AM 37.8220 -86.3340 243° Southwest 444 511 19,600 1,733 Climbing FlightAware ADS-B
Fri 04:58:50 AM 37.7840 -86.4310 244° Southwest 453 521 20,300 2,049 Climbing FlightAware ADS-B
Fri 04:59:27 AM 37.7510 -86.5170 244° Southwest 469 540 22,400 2,838 Climbing FlightAware ADS-B
Fri 05:00:04 AM 37.7120 -86.6160 244° Southwest 479 551 23,800 2,182 Climbing FlightAware ADS-B
Fri 05:00:44 AM 37.6680 -86.7280 244° Southwest 491 565 25,200 1,929 Climbing FlightAware ADS-B
Fri 05:01:28 AM 37.6220 -86.8420 243° Southwest 503 579 26,500 2,071 Climbing FlightAware ADS-B
Fri 05:02:08 AM 37.5810 -86.9460 244° Southwest 502 578 28,100 2,400 Climbing FlightAware ADS-B
Fri 05:02:43 AM 37.5460 -87.0370 244° Southwest 499 574 29,500 2,400 Climbing FlightAware ADS-B
Fri 05:03:28 AM 37.4990 -87.1530 243° Southwest 492 566 31,300 1,735 Climbing FlightAware ADS-B
Fri 05:04:06 AM 37.4600 -87.2500 243° Southwest 490 564 31,900 553 Climbing FlightAware ADS-B
Fri 05:04:44 AM 37.4240 -87.3400 243° Southwest 487 560 32,000 759 Climbing FlightAware ADS-B
Fri 05:05:25 AM 37.3810 -87.4480 243° Southwest 486 559 32,900 1,412 Climbing FlightAware ADS-B
Fri 05:06:09 AM 37.3350 -87.5600 243° Southwest 489 563 34,000 1,571 Climbing FlightAware ADS-B
Fri 05:06:49 AM 37.2950 -87.6600 243° Southwest 488 562 35,100 1,357 Climbing FlightAware ADS-B
Fri 05:07:33 AM 37.2490 -87.7710 243° Southwest 489 563 35,900 659 Climbing FlightAware ADS-B
Fri 05:08:11 AM 37.2110 -87.8650 243° Southwest 496 571 36,000 732 Climbing FlightAware ADS-B
Fri 05:08:55 AM 37.1650 -87.9790 243° Southwest 491 565 36,900 1,161 Climbing FlightAware ADS-B
Fri 05:09:44 AM 37.1140 -88.1020 243° Southwest 488 562 37,800 702 Climbing FlightAware ADS-B
Fri 05:10:29 AM 37.0670 -88.2160 243° Southwest 485 558 38,000 148 Climbing FlightAware ADS-B
Fri 05:11:05 AM 37.0320 -88.3000 242° Southwest 485 558 38,000  Level FlightAware ADS-B
Fri 05:11:49 AM 36.9840 -88.4170 243° Southwest 487 560 38,000  Level FlightAware ADS-B
Fri 05:12:33 AM 36.9390 -88.5250 242° Southwest 481 554 38,000  Level FlightAware ADS-B
Fri 05:13:18 AM 36.8960 -88.6250 242° Southwest 482 555 38,000  Level FlightAware ADS-B
Fri 05:13:50 AM 36.8740 -88.6810 244° Southwest 483 556 38,000  Level FlightAware ADS-B
Fri 05:14:39 AM 36.8220 -88.8020 242° Southwest 482 555 38,000  Level FlightAware ADS-B
Fri 05:15:17 AM 36.7720 -88.9220 243° Southwest 484 557 38,000  Level FlightAware ADS-B
Fri 05:15:55 AM 36.7290 -89.0230 242° Southwest 485 558 38,000  Level FlightAware ADS-B
Fri 05:16:38 AM 36.6860 -89.1250 242° Southwest 485 558 38,000  Level FlightAware ADS-B
Fri 05:17:27 AM 36.6420 -89.2280 242° Southwest 485 558 38,000  Level FlightAware ADS-B
Fri 05:18:10 AM 36.5920 -89.3460 242° Southwest 487 560 38,000  Level FlightAware ADS-B
Fri 05:18:43 AM 36.5550 -89.4320 242° Southwest 487 560 38,000  Level FlightAware ADS-B
Fri 05:19:32 AM 36.5090 -89.5340 241° Southwest 487 560 38,000  Level FlightAware ADS-B
Fri 05:20:08 AM 36.4760 -89.6090 241° Southwest 487 560 38,000 73 Level FlightAware ADS-B
Fri 05:20:54 AM 36.4140 -89.7590 243° Southwest 489 563 38,100 71 Climbing FlightAware ADS-B
Fri 05:21:32 AM 36.3780 -89.8400 241° Southwest 489 563 38,100  Level FlightAware ADS-B
Fri 05:22:10 AM 36.3310 -89.9490 242° Southwest 489 563 38,100 -73 Level FlightAware ADS-B
Fri 05:22:54 AM 36.2850 -90.0560 242° Southwest 490 564 38,000 -76 Descending FlightAware ADS-B
Fri 05:23:29 AM 36.2500 -90.1330 241° Southwest 489 563 38,000  Level FlightAware ADS-B
Fri 05:24:05 AM 36.2170 -90.2080 241° Southwest 489 563 38,000  Level FlightAware ADS-B
Fri 05:24:53 AM 36.1720 -90.3080 241° Southwest 489 563 38,000  Level FlightAware ADS-B
Fri 05:25:29 AM 36.1390 -90.3830 241° Southwest 489 563 38,000  Level FlightAware ADS-B
Fri 05:26:08 AM 36.0740 -90.5340 242° Southwest 492 566 38,000  Level FlightAware ADS-B
Fri 05:26:56 AM 36.0210 -90.6530 241° Southwest 494 568 38,000  Level FlightAware ADS-B
Fri 05:27:36 AM 35.9770 -90.7520 241° Southwest 494 568 38,000  Level FlightAware ADS-B
Fri 05:28:26 AM 35.9220 -90.8740 241° Southwest 495 570 38,000  Level FlightAware ADS-B
Fri 05:29:06 AM 35.8850 -90.9580 241° Southwest 495 570 38,000  Level FlightAware ADS-B
Fri 05:29:54 AM 35.8390 -91.0590 241° Southwest 495 570 38,000  Level FlightAware ADS-B
Fri 05:30:37 AM 35.7770 -91.1950 241° Southwest 497 572 38,000  Level FlightAware ADS-B
Fri 05:31:18 AM 35.7310 -91.2980 241° Southwest 498 573 38,000  Level FlightAware ADS-B
Fri 05:32:02 AM 35.6800 -91.4100 241° Southwest 499 574 38,000  Level FlightAware ADS-B
Fri 05:32:41 AM 35.6420 -91.4910 240° Southwest 499 574 38,000  Level FlightAware ADS-B
Fri 05:33:25 AM 35.5910 -91.6040 241° Southwest 498 573 38,000  Level FlightAware ADS-B
Fri 05:34:07 AM 35.5400 -91.7170 241° Southwest 500 575 38,000  Level FlightAware ADS-B
Fri 05:34:48 AM 35.4920 -91.8200 240° Southwest 501 577 38,000  Level FlightAware ADS-B
Fri 05:35:41 AM 35.4380 -91.9370 240° Southwest 501 577 38,000  Level FlightAware ADS-B
Fri 05:36:28 AM 35.3800 -92.0630 241° Southwest 501 577 38,000  Level FlightAware ADS-B
Fri 05:37:22 AM 35.3230 -92.1850 240° Southwest 501 577 38,000  Level FlightAware ADS-B
Fri 05:37:54 AM 35.2840 -92.2680 240° Southwest 502 578 38,000  Level FlightAware ADS-B
Fri 05:38:43 AM 35.2310 -92.3820 240° Southwest 502 578 38,000  Level FlightAware ADS-B
Fri 05:39:22 AM 35.1880 -92.4730 240° Southwest 502 578 38,000  Level FlightAware ADS-B
Fri 05:39:57 AM 35.1530 -92.5470 240° Southwest 503 579 38,000  Level FlightAware ADS-B
Fri 05:40:56 AM 35.0690 -92.7260 240° Southwest 504 580 38,000  Level FlightAware ADS-B
Fri 05:41:49 AM 35.0120 -92.8450 240° Southwest 504 580 38,000  Level FlightAware ADS-B
Fri 05:42:31 AM 34.9640 -92.9480 240° Southwest 504 580 38,000 74 Level FlightAware ADS-B
Fri 05:43:10 AM 34.9120 -93.0550 239° Southwest 505 581 38,100 67 Climbing FlightAware ADS-B
Fri 05:44:00 AM 34.8580 -93.1680 240° Southwest 505 581 38,100 -65 Level FlightAware ADS-B
Fri 05:44:42 AM 34.8050 -93.2780 240° Southwest 508 585 38,000  Descending FlightAware ADS-B
Fri 05:45:24 AM 34.7550 -93.3830 240° Southwest 508 585 38,100 67 Climbing FlightAware ADS-B
Fri 05:46:12 AM 34.7060 -93.4850 240° Southwest 508 585 38,100 -65 Level FlightAware ADS-B
Fri 05:46:56 AM 34.6450 -93.6100 239° Southwest 505 581 38,000 -71 Descending FlightAware ADS-B
Fri 05:47:36 AM 34.6040 -93.6930 239° Southwest 505 581 38,000  Level FlightAware ADS-B
Fri 05:48:17 AM 34.5560 -93.7910 239° Southwest 502 578 38,000  Level FlightAware ADS-B
Fri 05:48:53 AM 34.5200 -93.8650 239° Southwest 502 578 38,000  Level FlightAware ADS-B
Fri 05:49:37 AM 34.4740 -93.9600 240° Southwest 498 573 38,000  Level FlightAware ADS-B
Fri 05:50:14 AM 34.4360 -94.0350 238° Southwest 498 573 38,000  Level FlightAware ADS-B
Fri 05:51:03 AM 34.3550 -94.2020 240° Southwest 494 568 38,000  Level FlightAware ADS-B
Fri 05:51:59 AM 34.2890 -94.3340 239° Southwest 495 570 38,000 60 Level FlightAware ADS-B
Fri 05:52:43 AM 34.2380 -94.4390 240° Southwest 495 570 38,100 75 Climbing FlightAware ADS-B
Fri 05:53:19 AM 34.1950 -94.5240 239° Southwest 496 571 38,100  Level FlightAware ADS-B
Fri 05:53:59 AM 34.1480 -94.6190 239° Southwest 496 571 38,100  Level FlightAware ADS-B
Fri 05:54:39 AM 34.1000 -94.7140 239° Southwest 496 571 38,100  Level FlightAware ADS-B
Fri 05:55:19 AM 34.0530 -94.8080 239° Southwest 493 567 38,100 -75 Level FlightAware ADS-B
Fri 05:55:59 AM 34.0090 -94.9050 241° Southwest 487 560 38,000 -1,275 Descending FlightAware ADS-B
Fri 05:56:39 AM 33.9670 -95.0010 242° Southwest 485 558 36,400 -2,775 Descending FlightAware ADS-B
Fri 05:57:19 AM 33.9260 -95.0950 242° Southwest 493 567 34,300 -3,000 Descending FlightAware ADS-B
Fri 05:58:03 AM 33.8780 -95.2040 242° Southwest 492 566 32,200 -1,979 Descending FlightAware ADS-B
Fri 05:58:53 AM 33.8300 -95.3130 242° Southwest 496 571 31,200 -1,789 Descending FlightAware ADS-B
Fri 05:59:57 AM 33.7630 -95.4660 242° Southwest 483 556 28,800 -3,184 Descending FlightAware ADS-B
Fri 06:00:31 AM 33.7200 -95.5610 241° Southwest 508 585 26,000 -3,730 Descending FlightAware ADS-B
Fri 06:01:11 AM 33.6750 -95.6610 242° Southwest 510 587 24,200 -2,571 Descending FlightAware ADS-B
Fri 06:01:55 AM 33.6280 -95.7680 242° Southwest 489 563 22,400 -2,447 Descending FlightAware ADS-B
Fri 06:02:27 AM 33.5950 -95.8410 242° Southwest 492 566 21,100 -2,000 Descending FlightAware ADS-B
Fri 06:03:10 AM 33.5660 -95.9050 241° Southwest 484 557 19,900 -2,651 Descending FlightAware ADS-B
Fri 06:03:53 AM 33.5030 -96.0460 242° Southwest 463 533 17,300 -3,035 Descending FlightAware ADS-B
Fri 06:04:35 AM 33.4600 -96.1390 241° Southwest 452 520 15,600 -2,417 Descending FlightAware ADS-B
Fri 06:05:05 AM 33.4310 -96.2040 242° Southwest 446 513 14,400 -2,432 Descending FlightAware ADS-B
Fri 06:05:49 AM 33.3880 -96.2980 241° Southwest 431 496 12,600 -2,195 Descending FlightAware ADS-B
Fri 06:06:27 AM 33.3520 -96.3780 242° Southwest 412 474 11,400 -1,259 Descending FlightAware ADS-B
Fri 06:07:10 AM 33.3210 -96.4470 242° Southwest 378 435 10,900 -462 Descending FlightAware ADS-B
Fri 06:07:45 AM 33.2890 -96.5180 242° Southwest 330 380 10,800 -468 Descending FlightAware ADS-B
Fri 06:08:27 AM 33.2590 -96.5820 241° Southwest 302 348 10,300 -971 Descending FlightAware ADS-B
Fri 06:08:53 AM 33.2420 -96.6190 241° Southwest 298 343 9,700 -1,385 Descending FlightAware ADS-B
Fri 06:09:19 AM 33.2250 -96.6560 241° Southwest 295 339 9,100 -1,444 Descending FlightAware ADS-B
Fri 06:09:47 AM 33.2060 -96.6970 241° Southwest 291 335 8,400 -1,385 Descending FlightAware ADS-B
Fri 06:10:11 AM 33.1910 -96.7290 241° Southwest 286 329 7,900 -1,269 Descending FlightAware ADS-B
Fri 06:10:39 AM 33.1730 -96.7680 241° Southwest 283 326 7,300 -1,345 Descending FlightAware ADS-B
Fri 06:11:09 AM 33.1540 -96.8090 241° Southwest 279 321 6,600 -1,345 Descending FlightAware ADS-B
Fri 06:11:37 AM 33.1370 -96.8480 243° Southwest 272 313 6,000 -947 Descending FlightAware ADS-B
Fri 06:12:06 AM 33.1210 -96.8820 241° Southwest 256 295 5,700 -750 Descending FlightAware ADS-B
Fri 06:12:33 AM 33.1040 -96.9150 238° Southwest 237 273 5,300 -923 Descending FlightAware ADS-B
Fri 06:12:45 AM 33.0980 -96.9290 243° Southwest 229 264 5,100 -1,200 Descending FlightAware ADS-B
Fri 06:13:13 AM 33.0850 -96.9600 243° Southwest 221 254 4,500 -1,364 Descending FlightAware ADS-B
Fri 06:13:29 AM 33.0770 -96.9780 242° Southwest 218 251 4,100 -947 Descending FlightAware ADS-B
Fri 06:13:51 AM 33.0710 -96.9890 237° Southwest 204 235 3,900 -941 Descending FlightAware ADS-B
Fri 06:14:20 AM 33.0590 -97.0130 239° Southwest 186 214 3,300 -1,309 Descending FlightAware ADS-B
Fri 06:14:46 AM 33.0440 -97.0330 228° Southwest 192 221 2,700 -960 Descending FlightAware ADS-B
Fri 06:15:10 AM 33.0270 -97.0480 216° Southwest 182 209 2,500 -714 Descending FlightAware ADS-B
Fri 06:15:28 AM 33.0140 -97.0520 194° South 161 185 2,200 -1,000 Descending FlightAware ADS-B
Fri 06:15:40 AM 33.0050 -97.0540 191° South 156 180 2,000 -792 Descending FlightAware ADS-B
Fri 06:16:21 AM 32.9670 -97.0540 180° South 150 173 1,500 -462 Descending FlightAware ADS-B
Fri 06:16:58 AM 32.9450 -97.0550 182° South 147 169 1,400 -486 Descending FlightAware ADS-B
Fri 06:18:12 AM 32.8975 -97.0619 182° South 144 166 600 -649 Descending Fort Worth Center

Login

Don't have an account? Register now (free) for customized features, flight alerts, and more!